Weather at Orly (Olooitikosh) Airport

Public forecast

Using degrees Celsius for public forecast. Weather courtesy of forecast.io.

Closest aviation weather report (METAR) to Orly (Olooitikosh) Airport

Closest report is Nairobi Wilson Airport, 15.6 nm (28.9 km) N.

2024/04/24 13:00 (retrieved 31 minutes ago)

HKNW 241300Z 06008KT 7000 RA SCT023 BKN080 22/18 Q1018

Closest aviation forecast (TAF) to Orly (Olooitikosh) Airport

Closest forecast is Nairobi Wilson Airport, 15.6 nm (28.9 km) N.

2024/04/24 12:09 (retrieved 1 hour ago)

TAF HKNW 241100Z 2412/2512 VRB02KT 9999 BKN026 TEMPO 2414/2418 VRB10KT -TSRA FEW020CB SCT021 BKN080 BECMG 2421/2424 25005KT -RA BKN018 BKN080 BECMG 2508/2511 13010KT NSW FEW023CB SCT024